createdAt,value
2022-10-02T00:02:21.792Z,10.78
2022-10-02T00:05:08.901Z,10.77
2022-10-02T00:08:03.447Z,10.77
2022-10-02T00:10:41.330Z,10.77
2022-10-02T00:13:15.649Z,10.78
2022-10-02T00:15:44.822Z,10.80
2022-10-02T00:18:17.952Z,10.82
2022-10-02T00:21:03.237Z,10.84
2022-10-02T00:23:43.234Z,10.86
2022-10-02T00:26:24.058Z,10.91
2022-10-02T00:29:08.187Z,10.95
2022-10-02T00:32:02.868Z,10.98
2022-10-02T00:34:53.842Z,10.99
2022-10-02T00:37:38.985Z,11.00
2022-10-02T00:40:52.808Z,11.01
2022-10-02T00:43:35.651Z,10.99
2022-10-02T00:46:30.330Z,10.99
2022-10-02T00:49:25.539Z,10.98
2022-10-02T00:52:13.882Z,10.96
2022-10-02T00:55:08.511Z,10.95
2022-10-02T00:57:47.961Z,10.92
2022-10-02T01:00:18.738Z,10.89
2022-10-02T01:02:53.119Z,10.87
2022-10-02T01:05:21.550Z,10.86
2022-10-02T01:07:54.141Z,10.84
2022-10-02T01:10:25.526Z,10.83
2022-10-02T01:12:55.591Z,10.81
2022-10-02T01:15:37.475Z,10.81
2022-10-02T01:18:07.303Z,10.79
2022-10-02T01:20:42.365Z,10.78
2022-10-02T01:23:36.735Z,10.76
2022-10-02T01:26:05.973Z,10.75
2022-10-02T01:28:34.402Z,10.74
2022-10-02T01:31:11.002Z,10.71
2022-10-02T01:33:44.602Z,10.70
2022-10-02T01:36:15.319Z,10.67
2022-10-02T01:38:44.438Z,10.65
2022-10-02T01:41:13.419Z,10.63
2022-10-02T01:43:57.723Z,10.61
2022-10-02T01:46:38.531Z,10.59
2022-10-02T01:49:25.950Z,10.57
2022-10-02T01:51:57.110Z,10.56
2022-10-02T01:54:50.344Z,10.54
2022-10-02T01:57:49.984Z,10.51
2022-10-02T02:00:25.738Z,10.49
2022-10-02T02:03:18.706Z,10.46
2022-10-02T02:05:53.028Z,10.44
2022-10-02T02:08:45.851Z,10.44
2022-10-02T02:11:20.935Z,10.41
2022-10-02T02:14:15.294Z,10.39
2022-10-02T02:16:46.486Z,10.37
2022-10-02T02:19:33.949Z,10.34
2022-10-02T02:22:15.075Z,10.32
2022-10-02T02:24:48.423Z,10.31
2022-10-02T02:27:22.637Z,10.30
2022-10-02T02:29:55.317Z,10.30
2022-10-02T02:32:28.205Z,10.28
2022-10-02T02:35:05.636Z,10.27
2022-10-02T02:37:37.818Z,10.25
2022-10-02T02:40:20.220Z,10.27
2022-10-02T02:43:19.574Z,10.26
2022-10-02T02:45:54.838Z,10.27
2022-10-02T02:48:47.477Z,10.29
2022-10-02T02:51:30.313Z,10.28
2022-10-02T02:54:23.975Z,10.31
2022-10-02T02:56:56.490Z,10.34
2022-10-02T02:59:29.077Z,10.37
2022-10-02T03:01:58.104Z,10.41
2022-10-02T03:04:26.615Z,10.44
2022-10-02T03:07:01.492Z,10.48
2022-10-02T03:09:33.560Z,10.51
2022-10-02T03:12:04.983Z,10.53
2022-10-02T03:14:55.062Z,10.57
2022-10-02T03:17:51.388Z,10.60
2022-10-02T03:20:42.978Z,10.63
2022-10-02T03:23:33.152Z,10.68
2022-10-02T03:26:17.432Z,10.71
2022-10-02T03:28:56.489Z,10.75
2022-10-02T03:31:34.252Z,10.78
2022-10-02T03:34:03.713Z,10.79
2022-10-02T03:36:33.212Z,10.81
2022-10-02T03:39:24.080Z,10.82
2022-10-02T03:41:52.584Z,10.82
2022-10-02T03:44:22.452Z,10.80
2022-10-02T03:46:50.861Z,10.80
2022-10-02T03:49:19.953Z,10.78
2022-10-02T03:51:49.147Z,10.79
2022-10-02T03:54:20.514Z,10.79
2022-10-02T03:56:52.167Z,10.78
2022-10-02T03:59:31.347Z,10.80
2022-10-02T04:02:03.039Z,10.83
2022-10-02T04:04:48.019Z,10.85
2022-10-02T04:07:30.981Z,10.85
2022-10-02T04:10:20.639Z,10.86
2022-10-02T04:12:53.044Z,10.86
2022-10-02T04:15:28.235Z,10.87
2022-10-02T04:18:03.155Z,10.86
2022-10-02T04:20:43.713Z,10.85
2022-10-02T04:23:28.115Z,10.83
2022-10-02T04:26:03.839Z,10.82
2022-10-02T04:28:38.942Z,10.82
2022-10-02T04:31:15.088Z,10.81
2022-10-02T04:33:43.533Z,10.82
2022-10-02T04:36:44.306Z,10.84
2022-10-02T04:39:21.674Z,10.86
2022-10-02T04:42:15.212Z,10.86
2022-10-02T04:45:12.385Z,10.83
2022-10-02T04:47:51.308Z,10.81
2022-10-02T04:50:35.451Z,10.79
2022-10-02T04:53:16.680Z,10.77
2022-10-02T04:55:44.985Z,10.79
2022-10-02T04:58:47.349Z,10.79
2022-10-02T05:01:43.635Z,10.77
2022-10-02T05:04:44.766Z,10.76
2022-10-02T05:07:45.994Z,10.75
2022-10-02T05:10:20.480Z,10.73
2022-10-02T05:13:08.530Z,10.73
2022-10-02T05:16:10.992Z,10.72
2022-10-02T05:19:07.491Z,10.69
2022-10-02T05:22:15.285Z,10.66
2022-10-02T05:25:01.761Z,10.65
2022-10-02T05:28:17.551Z,10.64
2022-10-02T05:30:51.940Z,10.61
2022-10-02T05:33:35.598Z,10.60
2022-10-02T05:36:21.641Z,10.58
2022-10-02T05:39:01.679Z,10.56
2022-10-02T05:41:46.066Z,10.55
2022-10-02T05:44:39.300Z,10.55
2022-10-02T05:47:12.969Z,10.53
2022-10-02T05:49:49.981Z,10.51
2022-10-02T05:52:24.294Z,10.48
2022-10-02T05:55:03.867Z,10.48
2022-10-02T05:57:41.429Z,10.48
2022-10-02T06:00:27.985Z,10.46
2022-10-02T06:03:23.158Z,10.45
2022-10-02T06:06:10.695Z,10.46
2022-10-02T06:08:58.567Z,10.45
2022-10-02T06:11:29.671Z,10.46
2022-10-02T06:14:06.159Z,10.45
2022-10-02T06:16:41.453Z,10.47
2022-10-02T06:19:23.735Z,10.48
2022-10-02T06:22:15.179Z,10.51
2022-10-02T06:24:59.287Z,10.52
2022-10-02T06:27:30.655Z,10.53
2022-10-02T06:30:13.257Z,10.56
2022-10-02T06:33:06.457Z,10.56
2022-10-02T06:35:51.629Z,10.60
2022-10-02T06:38:32.352Z,10.65
2022-10-02T06:41:29.053Z,10.73
2022-10-02T06:44:17.394Z,10.84
2022-10-02T06:47:07.550Z,11.17
2022-10-02T06:49:58.352Z,11.39
2022-10-02T06:52:52.921Z,11.46
2022-10-02T06:55:46.015Z,11.48
2022-10-02T06:58:23.319Z,11.50
2022-10-02T07:01:29.589Z,11.53
2022-10-02T07:04:29.429Z,11.59
2022-10-02T07:07:09.935Z,11.62
2022-10-02T07:09:48.719Z,11.60
2022-10-02T07:12:43.946Z,11.60
2022-10-02T07:15:44.717Z,11.58
2022-10-02T07:19:01.252Z,11.52
2022-10-02T07:21:29.702Z,11.48
2022-10-02T07:24:32.358Z,11.46
2022-10-02T07:27:21.675Z,11.42
2022-10-02T07:30:04.423Z,11.43
2022-10-02T07:32:48.628Z,11.41
2022-10-02T07:35:41.453Z,11.36
2022-10-02T07:38:43.799Z,11.34
2022-10-02T07:41:33.900Z,11.31
2022-10-02T07:44:17.416Z,11.30
2022-10-02T07:47:01.964Z,11.31
2022-10-02T07:49:51.903Z,11.34
2022-10-02T07:52:41.586Z,11.37
2022-10-02T07:55:22.166Z,11.41
2022-10-02T07:58:08.952Z,11.47
2022-10-02T08:01:13.785Z,11.60
2022-10-02T08:03:51.505Z,11.79
2022-10-02T08:06:20.255Z,11.94
2022-10-02T08:09:21.218Z,12.07
2022-10-02T08:12:08.993Z,12.19
2022-10-02T08:14:41.217Z,12.36
2022-10-02T08:17:40.225Z,12.57
2022-10-02T08:20:31.408Z,12.72
2022-10-02T08:23:38.216Z,12.83
2022-10-02T08:26:35.784Z,12.96
2022-10-02T08:29:12.214Z,13.06
2022-10-02T08:31:40.740Z,13.14
2022-10-02T08:34:27.991Z,13.19
2022-10-02T08:37:24.398Z,13.22
2022-10-02T08:40:29.462Z,13.23
2022-10-02T08:43:22.921Z,13.31
2022-10-02T08:46:03.647Z,13.49
2022-10-02T08:49:00.679Z,13.55
2022-10-02T08:51:47.997Z,13.57
2022-10-02T08:54:25.406Z,13.57
2022-10-02T08:57:20.310Z,13.56
2022-10-02T09:00:09.012Z,13.60
2022-10-02T09:02:55.504Z,13.63
2022-10-02T09:05:45.706Z,13.67
2022-10-02T09:08:35.816Z,13.68
2022-10-02T09:11:29.451Z,13.73
2022-10-02T09:14:17.507Z,13.86
2022-10-02T09:16:51.699Z,13.97
2022-10-02T09:19:46.539Z,14.09
2022-10-02T09:23:03.413Z,14.18
2022-10-02T09:25:37.058Z,14.22
2022-10-02T09:28:21.519Z,14.18
2022-10-02T09:31:24.358Z,14.21
2022-10-02T09:34:11.849Z,14.29
2022-10-02T09:37:02.440Z,14.32
2022-10-02T09:39:43.162Z,14.41
2022-10-02T09:42:29.850Z,14.47
2022-10-02T09:45:29.175Z,14.51
2022-10-02T09:48:19.431Z,14.49
2022-10-02T09:51:06.958Z,14.56
2022-10-02T09:54:07.309Z,14.59
2022-10-02T09:57:13.311Z,14.62
2022-10-02T09:59:58.820Z,14.62
2022-10-02T10:03:01.140Z,14.62
2022-10-02T10:05:54.424Z,14.66
2022-10-02T10:08:23.119Z,14.72
2022-10-02T10:11:01.325Z,14.85
2022-10-02T10:13:42.475Z,14.95
2022-10-02T10:16:29.622Z,15.07
2022-10-02T10:19:02.737Z,15.15
2022-10-02T10:21:34.074Z,15.19
2022-10-02T10:24:23.293Z,15.26
2022-10-02T10:27:13.713Z,15.35
2022-10-02T10:29:49.304Z,15.47
2022-10-02T10:32:35.396Z,15.64
2022-10-02T10:35:28.754Z,15.79
2022-10-02T10:38:27.891Z,15.88
2022-10-02T10:41:07.711Z,15.78
2022-10-02T10:44:00.784Z,15.62
2022-10-02T10:46:45.043Z,15.42
2022-10-02T10:49:22.432Z,15.30
2022-10-02T10:52:25.271Z,15.24
2022-10-02T10:55:05.350Z,15.21
2022-10-02T10:58:03.218Z,15.28
2022-10-02T11:01:07.053Z,15.36
2022-10-02T11:04:01.223Z,15.49
2022-10-02T11:06:54.432Z,15.59
2022-10-02T11:09:51.918Z,15.67
2022-10-02T11:12:28.304Z,15.73
2022-10-02T11:15:15.036Z,15.84
2022-10-02T11:18:18.456Z,16.00
2022-10-02T11:20:57.365Z,16.14
2022-10-02T11:23:40.775Z,16.25
2022-10-02T11:26:25.527Z,16.29
2022-10-02T11:29:03.028Z,16.29
2022-10-02T11:31:59.960Z,16.16
2022-10-02T11:34:59.251Z,15.94
2022-10-02T11:37:42.874Z,15.75
2022-10-02T11:40:30.095Z,15.59
2022-10-02T11:43:23.051Z,15.53
2022-10-02T11:46:21.688Z,15.51
2022-10-02T11:48:55.921Z,15.59
2022-10-02T11:52:01.548Z,15.56
2022-10-02T11:55:08.044Z,15.47
2022-10-02T11:58:14.923Z,15.50
2022-10-02T12:01:05.723Z,15.60
2022-10-02T12:03:52.687Z,15.71
2022-10-02T12:07:05.233Z,15.80
2022-10-02T12:09:33.573Z,15.85
2022-10-02T12:12:07.171Z,15.92
2022-10-02T12:15:07.539Z,16.05
2022-10-02T12:17:57.762Z,16.20
2022-10-02T12:20:59.324Z,16.25
2022-10-02T12:24:07.437Z,16.23
2022-10-02T12:26:57.448Z,16.17
2022-10-02T12:29:41.022Z,16.18
2022-10-02T12:32:56.771Z,16.16
2022-10-02T12:35:44.154Z,16.03
2022-10-02T12:38:31.328Z,15.91
2022-10-02T12:41:21.846Z,15.89
2022-10-02T12:44:28.295Z,15.86
2022-10-02T12:47:08.281Z,15.78
2022-10-02T12:50:03.774Z,15.71
2022-10-02T12:53:00.314Z,15.74
2022-10-02T12:55:47.856Z,15.90
2022-10-02T12:58:42.780Z,16.07
2022-10-02T13:01:57.494Z,16.16
2022-10-02T13:05:02.854Z,16.18
2022-10-02T13:07:56.130Z,16.03
2022-10-02T13:10:46.112Z,15.85
2022-10-02T13:13:48.538Z,15.75
2022-10-02T13:16:35.495Z,15.75
2022-10-02T13:19:34.058Z,15.77
2022-10-02T13:22:16.594Z,15.73
2022-10-02T13:25:35.112Z,15.70
2022-10-02T13:28:22.656Z,15.64
2022-10-02T13:31:24.295Z,15.63
2022-10-02T13:34:34.066Z,15.60
2022-10-02T13:37:25.164Z,15.65
2022-10-02T13:40:20.671Z,15.76
2022-10-02T13:43:11.240Z,15.83
2022-10-02T13:46:02.717Z,15.95
2022-10-02T13:48:44.228Z,16.08
2022-10-02T13:51:40.532Z,16.19
2022-10-02T13:54:28.211Z,16.27
2022-10-02T13:57:05.017Z,16.32
2022-10-02T14:00:00.698Z,16.30
2022-10-02T14:02:45.770Z,16.22
2022-10-02T14:05:37.204Z,16.14
2022-10-02T14:08:24.556Z,16.14
2022-10-02T14:11:17.264Z,16.18
2022-10-02T14:14:10.048Z,16.22
2022-10-02T14:16:47.549Z,16.25
2022-10-02T14:19:35.856Z,16.24
2022-10-02T14:22:36.096Z,16.19
2022-10-02T14:25:23.909Z,16.21
2022-10-02T14:28:10.600Z,16.24
2022-10-02T14:30:55.384Z,16.27
2022-10-02T14:34:07.550Z,16.28
2022-10-02T14:37:16.859Z,16.27
2022-10-02T14:39:45.943Z,16.24
2022-10-02T14:42:32.935Z,16.18
2022-10-02T14:45:21.711Z,16.08
2022-10-02T14:48:10.261Z,15.90
2022-10-02T14:50:44.666Z,15.74
2022-10-02T14:53:16.191Z,15.62
2022-10-02T14:56:15.084Z,15.45
2022-10-02T14:59:11.547Z,15.36
2022-10-02T15:02:08.712Z,15.30
2022-10-02T15:05:08.746Z,15.26
2022-10-02T15:07:39.373Z,15.26
2022-10-02T15:10:27.119Z,15.21
2022-10-02T15:13:02.436Z,15.17
2022-10-02T15:15:35.503Z,15.15
2022-10-02T15:18:20.085Z,15.16
2022-10-02T15:21:08.130Z,15.16
2022-10-02T15:23:43.675Z,15.12
2022-10-02T15:26:21.129Z,15.10
2022-10-02T15:28:59.347Z,15.06
2022-10-02T15:31:39.932Z,15.05
2022-10-02T15:34:33.477Z,15.03
2022-10-02T15:37:37.084Z,15.02
2022-10-02T15:40:16.883Z,14.99
2022-10-02T15:42:58.136Z,14.99
2022-10-02T15:45:34.009Z,14.95
2022-10-02T15:48:14.880Z,14.92
2022-10-02T15:51:02.801Z,14.87
2022-10-02T15:53:45.935Z,14.85
2022-10-02T15:56:14.981Z,14.84
2022-10-02T15:59:21.216Z,14.82
2022-10-02T16:02:13.002Z,14.79
2022-10-02T16:05:01.271Z,14.79
2022-10-02T16:07:57.699Z,14.75
2022-10-02T16:10:40.188Z,14.72
2022-10-02T16:13:36.512Z,14.66
2022-10-02T16:16:46.320Z,14.59
2022-10-02T16:19:31.652Z,14.56
2022-10-02T16:22:18.073Z,14.49
2022-10-02T16:24:50.781Z,14.42
2022-10-02T16:27:30.364Z,14.38
2022-10-02T16:30:13.953Z,14.32
2022-10-02T16:33:05.425Z,14.26
2022-10-02T16:36:11.317Z,14.18
2022-10-02T16:39:04.842Z,14.10
2022-10-02T16:41:58.447Z,14.06
2022-10-02T16:44:45.932Z,14.01
2022-10-02T16:47:38.141Z,13.94
2022-10-02T16:50:29.170Z,13.90
2022-10-02T16:53:34.758Z,13.84
2022-10-02T16:56:50.213Z,13.79
2022-10-02T16:59:44.206Z,13.73
2022-10-02T17:02:22.398Z,13.66
2022-10-02T17:05:16.543Z,13.62
2022-10-02T17:08:08.815Z,13.55
2022-10-02T17:10:40.254Z,13.50
2022-10-02T17:13:48.344Z,13.46
2022-10-02T17:16:24.289Z,13.40
2022-10-02T17:18:59.282Z,13.35
2022-10-02T17:21:50.189Z,13.28
2022-10-02T17:24:45.273Z,13.24
2022-10-02T17:27:42.611Z,13.18
2022-10-02T17:30:26.518Z,13.13
2022-10-02T17:33:19.683Z,13.09
2022-10-02T17:35:54.825Z,13.05
2022-10-02T17:38:42.838Z,13.01
2022-10-02T17:41:25.438Z,12.97
2022-10-02T17:44:03.123Z,12.93
2022-10-02T17:46:37.962Z,12.88
2022-10-02T17:49:30.052Z,12.84
2022-10-02T17:52:33.334Z,12.79
2022-10-02T17:55:32.891Z,12.73
2022-10-02T17:58:25.189Z,12.67
2022-10-02T18:01:10.322Z,12.63
2022-10-02T18:04:03.973Z,12.60
2022-10-02T18:07:17.152Z,12.56
2022-10-02T18:10:10.157Z,12.51
2022-10-02T18:13:09.512Z,12.47
2022-10-02T18:16:08.708Z,12.45
2022-10-02T18:18:55.793Z,12.41
2022-10-02T18:21:54.084Z,12.37
2022-10-02T18:24:35.276Z,12.35
2022-10-02T18:27:28.003Z,12.33
2022-10-02T18:30:33.055Z,12.28
2022-10-02T18:33:24.297Z,12.25
2022-10-02T18:36:16.338Z,12.22
2022-10-02T18:38:57.929Z,12.19
2022-10-02T18:41:32.745Z,12.16
2022-10-02T18:44:22.319Z,12.14
2022-10-02T18:47:06.368Z,12.09
2022-10-02T18:49:38.450Z,12.07
2022-10-02T18:52:39.855Z,12.03
2022-10-02T18:55:17.504Z,11.99
2022-10-02T18:58:03.748Z,11.96
2022-10-02T19:01:15.927Z,11.92
2022-10-02T19:04:15.723Z,11.90
2022-10-02T19:06:50.292Z,11.88
2022-10-02T19:09:27.782Z,11.85
2022-10-02T19:12:15.470Z,11.83
2022-10-02T19:14:46.473Z,11.81
2022-10-02T19:17:31.258Z,11.82
2022-10-02T19:19:59.873Z,11.81
2022-10-02T19:22:38.378Z,11.79
2022-10-02T19:25:20.743Z,11.78
2022-10-02T19:27:54.720Z,11.79
2022-10-02T19:30:30.627Z,11.75
2022-10-02T19:33:03.662Z,11.75
2022-10-02T19:35:41.981Z,11.73
2022-10-02T19:38:31.325Z,11.73
2022-10-02T19:41:09.737Z,11.73
2022-10-02T19:44:02.003Z,11.71
2022-10-02T19:46:43.600Z,11.72
2022-10-02T19:49:24.160Z,11.73
2022-10-02T19:51:53.525Z,11.72
2022-10-02T19:54:39.713Z,11.76
2022-10-02T19:57:24.367Z,11.75
2022-10-02T19:59:55.720Z,11.73
2022-10-02T20:02:28.241Z,11.74
2022-10-02T20:05:03.088Z,11.69
2022-10-02T20:07:36.848Z,11.66
2022-10-02T20:10:15.325Z,11.64
2022-10-02T20:12:54.424Z,11.65
2022-10-02T20:15:48.401Z,11.66
2022-10-02T20:18:17.007Z,11.67
2022-10-02T20:20:47.669Z,11.68
2022-10-02T20:23:27.697Z,11.67
2022-10-02T20:26:00.459Z,11.66
2022-10-02T20:28:48.667Z,11.64
2022-10-02T20:31:41.795Z,11.58
2022-10-02T20:34:34.457Z,11.56
2022-10-02T20:37:08.628Z,11.52
2022-10-02T20:40:02.548Z,11.48
2022-10-02T20:42:40.835Z,11.45
2022-10-02T20:45:15.118Z,11.41
2022-10-02T20:48:10.792Z,11.36
2022-10-02T20:50:48.907Z,11.33
2022-10-02T20:53:56.105Z,11.30
2022-10-02T20:57:07.967Z,11.25
2022-10-02T20:59:59.838Z,11.20
2022-10-02T21:02:35.036Z,11.17
2022-10-02T21:05:37.713Z,11.17
2022-10-02T21:08:40.645Z,11.16
2022-10-02T21:11:22.614Z,11.12
2022-10-02T21:13:53.949Z,11.10
2022-10-02T21:16:38.345Z,11.07
2022-10-02T21:19:47.630Z,11.04
2022-10-02T21:22:33.496Z,11.02
2022-10-02T21:25:21.215Z,11.01
2022-10-02T21:28:10.006Z,11.00
2022-10-02T21:30:54.713Z,10.96
2022-10-02T21:33:32.851Z,10.92
2022-10-02T21:36:25.243Z,10.89
2022-10-02T21:39:31.901Z,10.86
2022-10-02T21:42:31.956Z,10.84
2022-10-02T21:45:39.488Z,10.82
2022-10-02T21:48:26.909Z,10.77
2022-10-02T21:51:31.427Z,10.73
2022-10-02T21:54:37.372Z,10.73
2022-10-02T21:57:40.102Z,10.73
2022-10-02T22:00:26.851Z,10.74
2022-10-02T22:03:38.073Z,10.74
2022-10-02T22:06:16.703Z,10.74
2022-10-02T22:09:07.840Z,10.75
2022-10-02T22:12:04.623Z,10.76
2022-10-02T22:14:33.724Z,10.75
2022-10-02T22:17:22.712Z,10.76
2022-10-02T22:20:43.626Z,10.75
2022-10-02T22:23:39.498Z,10.73
2022-10-02T22:26:22.929Z,10.71
2022-10-02T22:29:08.961Z,10.69
2022-10-02T22:32:27.903Z,10.64
2022-10-02T22:35:06.463Z,10.61
2022-10-02T22:37:49.943Z,10.58
2022-10-02T22:40:23.313Z,10.53
2022-10-02T22:43:04.169Z,10.49
2022-10-02T22:46:00.383Z,10.45
2022-10-02T22:48:40.084Z,10.42
2022-10-02T22:51:20.287Z,10.39
2022-10-02T22:53:51.416Z,10.38
2022-10-02T22:56:36.492Z,10.36
2022-10-02T22:59:26.307Z,10.36
2022-10-02T23:02:31.814Z,10.33
2022-10-02T23:05:12.217Z,10.31
2022-10-02T23:07:51.557Z,10.30
2022-10-02T23:10:32.180Z,10.26
2022-10-02T23:13:11.853Z,10.24
2022-10-02T23:15:57.659Z,10.21
2022-10-02T23:18:40.816Z,10.20
2022-10-02T23:21:34.211Z,10.18
2022-10-02T23:24:19.733Z,10.18
2022-10-02T23:27:07.997Z,10.19
2022-10-02T23:29:42.391Z,10.17
2022-10-02T23:32:32.833Z,10.14
2022-10-02T23:35:35.374Z,10.12
2022-10-02T23:38:17.241Z,10.07
2022-10-02T23:41:34.331Z,10.06
2022-10-02T23:44:44.024Z,10.04
2022-10-02T23:47:20.935Z,10.03
2022-10-02T23:49:53.245Z,10.02
2022-10-02T23:52:42.370Z,10.01
2022-10-02T23:55:37.562Z,10.00
2022-10-02T23:58:22.532Z,10.01
